createdAt,value
2018-04-15T00:00:54.208Z,7.96
2018-04-15T00:03:58.213Z,7.96
2018-04-15T00:07:02.318Z,8.00
2018-04-15T00:10:05.602Z,7.93
2018-04-15T00:13:08.901Z,7.82
2018-04-15T00:16:12.149Z,7.69
2018-04-15T00:19:15.423Z,7.60
2018-04-15T00:22:18.668Z,7.52
2018-04-15T00:25:21.909Z,7.38
2018-04-15T00:28:25.189Z,7.26
2018-04-15T00:31:28.438Z,7.34
2018-04-15T00:34:31.682Z,7.29
2018-04-15T00:37:34.937Z,7.05
2018-04-15T00:40:38.183Z,7.06
2018-04-15T00:43:41.429Z,7.07
2018-04-15T00:46:44.775Z,6.91
2018-04-15T00:49:48.018Z,6.92
2018-04-15T00:52:51.272Z,7.00
2018-04-15T00:55:54.522Z,7.01
2018-04-15T00:58:57.772Z,7.03
2018-04-15T01:02:01.097Z,7.05
2018-04-15T01:05:05.107Z,7.02
2018-04-15T01:08:09.699Z,7.03
2018-04-15T01:11:12.955Z,7.01
2018-04-15T01:14:16.225Z,7.04
2018-04-15T01:17:20.233Z,6.92
2018-04-15T01:20:23.503Z,6.89
2018-04-15T01:23:26.758Z,6.84
2018-04-15T01:26:30.786Z,6.87
2018-04-15T01:29:34.070Z,6.79
2018-04-15T01:32:37.318Z,6.79
2018-04-15T01:35:40.586Z,6.78
2018-04-15T01:38:43.885Z,6.82
2018-04-15T01:41:47.859Z,6.80
2018-04-15T01:44:51.890Z,6.78
2018-04-15T01:47:55.141Z,6.70
2018-04-15T01:50:58.384Z,6.69
2018-04-15T01:54:01.963Z,6.66
2018-04-15T01:57:05.234Z,6.71
2018-04-15T02:00:08.646Z,6.74
2018-04-15T02:03:11.896Z,6.78
2018-04-15T02:06:15.153Z,6.64
2018-04-15T02:09:18.403Z,6.68
2018-04-15T02:12:21.734Z,6.65
2018-04-15T02:15:24.998Z,6.51
2018-04-15T02:18:28.291Z,6.49
2018-04-15T02:21:31.543Z,6.61
2018-04-15T02:24:34.811Z,6.45
2018-04-15T02:27:38.948Z,6.29
2018-04-15T02:30:42.206Z,6.43
2018-04-15T02:33:46.483Z,6.31
2018-04-15T02:36:49.749Z,6.26
2018-04-15T02:39:53.793Z,6.31
2018-04-15T02:42:57.057Z,6.34
2018-04-15T02:46:00.314Z,6.38
2018-04-15T02:49:04.518Z,6.39
2018-04-15T02:52:08.527Z,6.44
2018-04-15T02:55:12.570Z,6.51
2018-04-15T02:58:15.815Z,6.59
2018-04-15T03:01:19.073Z,6.55
2018-04-15T03:04:22.333Z,6.52
2018-04-15T03:07:26.358Z,6.46
2018-04-15T03:10:30.388Z,6.45
2018-04-15T03:13:33.649Z,6.35
2018-04-15T03:16:36.915Z,6.27
2018-04-15T03:19:40.969Z,6.18
2018-04-15T03:22:44.275Z,6.16
2018-04-15T03:25:47.488Z,6.16
2018-04-15T03:28:50.735Z,6.27
2018-04-15T03:31:54.018Z,6.16
2018-04-15T03:34:57.274Z,5.92
2018-04-15T03:38:00.530Z,5.61
2018-04-15T03:41:03.791Z,5.87
2018-04-15T03:44:07.070Z,5.98
2018-04-15T03:47:11.126Z,6.08
2018-04-15T03:50:14.404Z,6.21
2018-04-15T03:53:17.655Z,6.33
2018-04-15T03:56:20.914Z,6.30
2018-04-15T03:59:24.274Z,6.36
2018-04-15T04:02:27.517Z,6.35
2018-04-15T04:05:30.782Z,6.39
2018-04-15T04:08:34.036Z,6.38
2018-04-15T04:11:37.282Z,6.49
2018-04-15T04:14:40.536Z,6.55
2018-04-15T04:18:01.491Z,6.62
2018-04-15T04:21:22.522Z,6.37
2018-04-15T04:24:43.209Z,6.44
2018-04-15T04:27:46.487Z,6.50
2018-04-15T04:30:50.564Z,6.36
2018-04-15T04:33:53.857Z,6.46
2018-04-15T04:36:57.090Z,6.38
2018-04-15T04:40:01.148Z,6.41
2018-04-15T04:43:04.468Z,6.48
2018-04-15T04:46:07.733Z,6.50
2018-04-15T04:49:11.000Z,6.43
2018-04-15T04:52:15.039Z,6.49
2018-04-15T04:55:18.294Z,6.58
2018-04-15T04:58:21.558Z,6.70
2018-04-15T05:01:24.824Z,6.82
2018-04-15T05:04:28.280Z,6.94
2018-04-15T05:07:31.546Z,7.10
2018-04-15T05:10:35.579Z,7.31
2018-04-15T05:13:39.607Z,7.50
2018-04-15T05:16:42.858Z,7.60
2018-04-15T05:19:46.111Z,7.71
2018-04-15T05:22:49.391Z,7.83
2018-04-15T05:25:52.646Z,7.90
2018-04-15T05:28:55.895Z,7.98
2018-04-15T05:31:59.143Z,8.13
2018-04-15T05:35:02.394Z,8.22
2018-04-15T05:38:06.380Z,8.37
2018-04-15T05:41:10.395Z,8.45
2018-04-15T05:44:14.416Z,8.50
2018-04-15T05:47:17.667Z,8.68
2018-04-15T05:50:20.960Z,8.84
2018-04-15T05:53:24.213Z,8.95
2018-04-15T05:56:28.247Z,9.01
2018-04-15T05:59:31.595Z,9.20
2018-04-15T06:02:35.169Z,9.34
2018-04-15T06:05:38.491Z,9.63
2018-04-15T06:08:41.733Z,9.88
2018-04-15T06:11:45.060Z,9.82
2018-04-15T06:14:48.370Z,10.11
2018-04-15T06:17:51.887Z,10.30
2018-04-15T06:20:55.266Z,10.33
2018-04-15T06:23:58.544Z,10.30
2018-04-15T06:27:01.818Z,10.37
2018-04-15T06:30:05.187Z,10.53
2018-04-15T06:33:08.458Z,11.18
2018-04-15T06:36:11.731Z,11.75
2018-04-15T06:39:15.010Z,11.93
2018-04-15T06:42:18.288Z,11.89
2018-04-15T06:45:21.604Z,12.20
2018-04-15T06:48:24.870Z,12.06
2018-04-15T06:51:28.530Z,12.36
2018-04-15T06:54:31.793Z,12.79
2018-04-15T06:57:35.841Z,13.21
2018-04-15T07:00:39.128Z,13.87
2018-04-15T07:03:42.468Z,14.13
2018-04-15T07:06:45.914Z,15.68
2018-04-15T07:09:49.245Z,16.23
2018-04-15T07:12:53.360Z,16.29
2018-04-15T07:15:56.655Z,16.33
2018-04-15T07:18:59.946Z,16.73
2018-04-15T07:22:03.285Z,16.95
2018-04-15T07:25:06.519Z,16.57
2018-04-15T07:28:10.540Z,16.68
2018-04-15T07:31:14.584Z,16.14
2018-04-15T07:34:18.621Z,16.88
2018-04-15T07:37:22.072Z,16.75
2018-04-15T07:40:25.354Z,17.43
2018-04-15T07:43:28.643Z,18.36
2018-04-15T07:46:31.922Z,18.30
2018-04-15T07:49:35.213Z,18.15
2018-04-15T07:52:38.489Z,18.52
2018-04-15T07:55:41.750Z,18.86
2018-04-15T07:58:45.022Z,18.82
2018-04-15T08:01:48.274Z,18.39
2018-04-15T08:04:51.554Z,17.70
2018-04-15T08:07:55.647Z,17.56
2018-04-15T08:10:58.922Z,17.57
2018-04-15T08:14:02.178Z,17.22
2018-04-15T08:17:06.260Z,17.67
2018-04-15T08:20:09.604Z,17.46
2018-04-15T08:23:13.719Z,17.31
2018-04-15T08:26:17.766Z,17.10
2018-04-15T08:29:21.018Z,17.52
2018-04-15T08:32:25.069Z,17.17
2018-04-15T08:35:28.362Z,17.40
2018-04-15T08:38:31.715Z,17.08
2018-04-15T08:41:35.003Z,17.25
2018-04-15T08:44:39.793Z,18.04
2018-04-15T08:47:43.091Z,17.92
2018-04-15T08:50:46.350Z,17.86
2018-04-15T08:53:50.409Z,17.41
2018-04-15T08:56:53.679Z,17.83
2018-04-15T08:59:57.791Z,18.06
2018-04-15T09:03:01.805Z,19.30
2018-04-15T09:06:05.843Z,18.98
2018-04-15T09:09:09.136Z,19.54
2018-04-15T09:12:13.161Z,19.86
2018-04-15T09:15:16.563Z,18.91
2018-04-15T09:18:19.825Z,18.45
2018-04-15T09:21:23.154Z,18.82
2018-04-15T09:24:26.423Z,18.75
2018-04-15T09:27:30.441Z,18.47
2018-04-15T09:30:39.942Z,18.37
2018-04-15T09:33:43.205Z,18.17
2018-04-15T09:36:46.457Z,18.04
2018-04-15T09:39:49.740Z,17.51
2018-04-15T09:42:52.995Z,17.65
2018-04-15T09:45:56.296Z,18.07
2018-04-15T09:48:59.602Z,18.36
2018-04-15T09:52:02.866Z,18.41
2018-04-15T09:55:06.903Z,18.90
2018-04-15T09:58:11.194Z,18.89
2018-04-15T10:01:17.254Z,19.00
2018-04-15T10:04:20.527Z,19.62
2018-04-15T10:07:23.803Z,19.84
2018-04-15T10:10:27.080Z,19.95
2018-04-15T10:13:30.426Z,19.04
2018-04-15T10:16:33.699Z,20.00
2018-04-15T10:19:36.972Z,20.81
2018-04-15T10:22:40.270Z,19.62
2018-04-15T10:25:43.576Z,20.20
2018-04-15T10:28:46.926Z,20.47
2018-04-15T10:31:50.184Z,20.79
2018-04-15T10:34:53.433Z,20.53
2018-04-15T10:37:56.701Z,19.76
2018-04-15T10:40:59.979Z,20.20
2018-04-15T10:44:03.261Z,18.43
2018-04-15T10:47:07.372Z,18.01
2018-04-15T10:50:10.750Z,18.17
2018-04-15T10:53:14.018Z,18.17
2018-04-15T10:56:17.290Z,18.14
2018-04-15T10:59:20.568Z,18.88
2018-04-15T11:02:23.906Z,19.16
2018-04-15T11:05:27.162Z,18.70
2018-04-15T11:08:30.471Z,19.49
2018-04-15T11:11:33.770Z,19.81
2018-04-15T11:14:37.033Z,20.02
2018-04-15T11:17:40.438Z,20.46
2018-04-15T11:20:44.486Z,20.61
2018-04-15T11:23:48.898Z,19.45
2018-04-15T11:26:53.391Z,19.01
2018-04-15T11:29:57.456Z,19.57
2018-04-15T11:33:00.806Z,18.79
2018-04-15T11:36:04.065Z,19.06
2018-04-15T11:39:07.546Z,19.48
2018-04-15T11:42:10.840Z,19.66
2018-04-15T11:45:15.101Z,19.65
2018-04-15T11:48:18.318Z,20.24
2018-04-15T11:51:21.583Z,20.47
2018-04-15T11:54:24.864Z,20.89
2018-04-15T11:57:28.164Z,20.91
2018-04-15T12:00:31.437Z,20.78
2018-04-15T12:03:35.478Z,20.75
2018-04-15T12:06:38.875Z,21.06
2018-04-15T12:09:42.128Z,20.49
2018-04-15T12:12:45.404Z,20.62
2018-04-15T12:15:48.678Z,21.09
2018-04-15T12:18:52.786Z,20.95
2018-04-15T12:21:56.262Z,21.31
2018-04-15T12:25:00.319Z,21.06
2018-04-15T12:28:03.611Z,21.79
2018-04-15T12:31:06.914Z,19.84
2018-04-15T12:34:10.207Z,20.71
2018-04-15T12:37:13.520Z,21.10
2018-04-15T12:40:16.808Z,20.73
2018-04-15T12:43:20.101Z,21.28
2018-04-15T12:46:23.382Z,20.49
2018-04-15T12:49:27.787Z,20.00
2018-04-15T12:52:31.051Z,20.83
2018-04-15T12:55:34.312Z,21.24
2018-04-15T12:58:39.581Z,21.26
2018-04-15T13:01:42.892Z,21.32
2018-04-15T13:04:46.165Z,21.39
2018-04-15T13:07:49.437Z,20.23
2018-04-15T13:10:53.460Z,21.10
2018-04-15T13:13:57.492Z,21.31
2018-04-15T13:17:00.788Z,21.33
2018-04-15T13:20:04.354Z,21.08
2018-04-15T13:23:08.492Z,20.91
2018-04-15T13:26:12.533Z,21.01
2018-04-15T13:29:16.599Z,20.97
2018-04-15T13:32:19.985Z,20.47
2018-04-15T13:35:23.294Z,20.47
2018-04-15T13:38:26.772Z,20.71
2018-04-15T13:41:30.829Z,20.47
2018-04-15T13:44:34.150Z,20.53
2018-04-15T13:47:37.366Z,20.69
2018-04-15T13:50:40.647Z,20.77
2018-04-15T13:53:44.144Z,21.03
2018-04-15T13:56:47.614Z,21.07
2018-04-15T13:59:50.924Z,20.57
2018-04-15T14:02:54.308Z,20.70
2018-04-15T14:05:57.605Z,21.01
2018-04-15T14:09:00.881Z,21.06
2018-04-15T14:12:05.076Z,20.36
2018-04-15T14:15:08.808Z,20.31
2018-04-15T14:18:12.993Z,20.55
2018-04-15T14:21:16.309Z,20.93
2018-04-15T14:24:19.604Z,20.33
2018-04-15T14:27:22.891Z,20.23
2018-04-15T14:30:26.145Z,20.45
2018-04-15T14:33:29.405Z,20.34
2018-04-15T14:36:33.459Z,19.83
2018-04-15T14:39:36.771Z,19.68
2018-04-15T14:42:40.047Z,19.69
2018-04-15T14:45:44.118Z,19.67
2018-04-15T14:48:47.386Z,19.71
2018-04-15T14:51:50.666Z,19.53
2018-04-15T14:54:54.698Z,19.81
2018-04-15T14:57:58.070Z,19.57
2018-04-15T15:01:01.516Z,19.39
2018-04-15T15:04:04.950Z,19.38
2018-04-15T15:07:09.047Z,19.45
2018-04-15T15:10:12.341Z,19.06
2018-04-15T15:13:16.327Z,18.87
2018-04-15T15:16:19.630Z,18.98
2018-04-15T15:19:22.997Z,18.97
2018-04-15T15:22:26.204Z,19.17
2018-04-15T15:25:30.278Z,18.87
2018-04-15T15:28:33.633Z,18.93
2018-04-15T15:31:37.655Z,18.74
2018-04-15T15:34:41.781Z,18.67
2018-04-15T15:37:45.180Z,18.43
2018-04-15T15:40:49.325Z,18.29
2018-04-15T15:43:52.614Z,18.33
2018-04-15T15:46:55.899Z,18.15
2018-04-15T15:49:59.402Z,18.22
2018-04-15T15:53:03.541Z,18.17
2018-04-15T15:56:06.801Z,18.12
2018-04-15T15:59:10.839Z,17.90
2018-04-15T16:02:14.090Z,17.69
2018-04-15T16:05:17.363Z,17.52
2018-04-15T16:08:20.735Z,17.46
2018-04-15T16:11:24.025Z,17.31
2018-04-15T16:14:28.046Z,17.28
2018-04-15T16:17:31.313Z,17.25
2018-04-15T16:20:34.575Z,17.23
2018-04-15T16:23:37.898Z,17.23
2018-04-15T16:26:41.138Z,17.10
2018-04-15T16:29:44.502Z,16.98
2018-04-15T16:32:47.845Z,16.94
2018-04-15T16:35:51.281Z,16.88
2018-04-15T16:38:54.653Z,16.86
2018-04-15T16:41:58.399Z,16.87
2018-04-15T16:45:01.792Z,16.87
2018-04-15T16:48:05.146Z,16.74
2018-04-15T16:51:09.174Z,16.75
2018-04-15T16:54:12.549Z,16.69
2018-04-15T16:57:16.592Z,16.67
2018-04-15T17:00:19.802Z,16.71
2018-04-15T17:03:23.601Z,16.56
2018-04-15T17:06:26.881Z,16.61
2018-04-15T17:09:30.178Z,16.60
2018-04-15T17:12:34.208Z,16.48
2018-04-15T17:15:37.676Z,16.28
2018-04-15T17:18:40.958Z,16.10
2018-04-15T17:21:44.924Z,16.02
2018-04-15T17:24:48.957Z,16.04
2018-04-15T17:27:52.233Z,15.90
2018-04-15T17:30:56.255Z,15.85
2018-04-15T17:34:00.304Z,15.92
2018-04-15T17:37:03.683Z,16.00
2018-04-15T17:40:07.709Z,15.97
2018-04-15T17:43:10.987Z,16.03
2018-04-15T17:46:15.031Z,16.02
2018-04-15T17:49:18.321Z,16.07
2018-04-15T17:52:22.633Z,16.05
2018-04-15T17:55:26.858Z,15.96
2018-04-15T17:58:30.144Z,15.95
2018-04-15T18:01:33.428Z,15.94
2018-04-15T18:04:36.706Z,15.88
2018-04-15T18:07:39.994Z,15.82
2018-04-15T18:10:43.291Z,15.79
2018-04-15T18:13:47.343Z,15.46
2018-04-15T18:16:50.614Z,15.26
2018-04-15T18:19:53.907Z,15.13
2018-04-15T18:22:57.162Z,15.12
2018-04-15T18:26:00.421Z,15.28
2018-04-15T18:29:03.701Z,15.23
2018-04-15T18:32:07.037Z,15.30
2018-04-15T18:35:10.290Z,15.35
2018-04-15T18:38:14.470Z,15.35
2018-04-15T18:41:17.738Z,15.38
2018-04-15T18:44:21.017Z,15.44
2018-04-15T18:47:24.335Z,15.40
2018-04-15T18:50:27.691Z,15.40
2018-04-15T18:53:30.917Z,15.41
2018-04-15T18:56:34.945Z,15.42
2018-04-15T18:59:38.985Z,15.42
2018-04-15T19:02:42.252Z,15.41
2018-04-15T19:05:46.356Z,15.41
2018-04-15T19:08:49.670Z,15.37
2018-04-15T19:11:54.164Z,15.33
2018-04-15T19:14:57.442Z,15.33
2018-04-15T19:18:00.743Z,15.22
2018-04-15T19:21:04.052Z,15.15
2018-04-15T19:24:07.795Z,15.09
2018-04-15T19:27:11.072Z,15.10
2018-04-15T19:30:15.802Z,15.07
2018-04-15T19:33:19.075Z,15.13
2018-04-15T19:36:22.346Z,15.14
2018-04-15T19:39:27.080Z,15.06
2018-04-15T19:42:31.903Z,14.98
2018-04-15T19:45:35.430Z,14.92
2018-04-15T19:48:55.616Z,14.84
2018-04-15T19:51:59.976Z,14.82
2018-04-15T19:55:03.258Z,14.79
2018-04-15T19:58:08.992Z,14.80
2018-04-15T20:01:12.492Z,14.78
2018-04-15T20:04:17.900Z,14.76
2018-04-15T20:07:21.192Z,14.75
2018-04-15T20:10:24.479Z,14.75
2018-04-15T20:13:27.892Z,14.76
2018-04-15T20:16:31.166Z,14.71
2018-04-15T20:19:34.461Z,14.75
2018-04-15T20:22:37.752Z,14.76
2018-04-15T20:25:41.060Z,14.78
2018-04-15T20:28:44.382Z,14.64
2018-04-15T20:31:47.670Z,14.66
2018-04-15T20:34:50.979Z,14.68
2018-04-15T20:37:54.260Z,14.65
2018-04-15T20:40:57.779Z,14.64
2018-04-15T20:44:01.066Z,14.66
2018-04-15T20:47:04.366Z,14.53
2018-04-15T20:50:07.652Z,14.47
2018-04-15T20:53:10.955Z,14.48
2018-04-15T20:56:14.247Z,14.43
2018-04-15T20:59:17.531Z,14.50
2018-04-15T21:02:21.582Z,14.40
2018-04-15T21:05:24.873Z,14.38
2018-04-15T21:08:28.184Z,14.35
2018-04-15T21:11:31.468Z,14.32
2018-04-15T21:14:34.755Z,14.30
2018-04-15T21:17:38.012Z,14.27
2018-04-15T21:20:41.315Z,14.20
2018-04-15T21:23:44.590Z,14.13
2018-04-15T21:26:47.851Z,14.20
2018-04-15T21:29:51.272Z,14.19
2018-04-15T21:32:54.542Z,14.12
2018-04-15T21:35:57.839Z,14.14
2018-04-15T21:39:01.231Z,14.08
2018-04-15T21:42:05.289Z,14.02
2018-04-15T21:45:08.799Z,13.85
2018-04-15T21:48:12.202Z,13.92
2018-04-15T21:51:15.473Z,13.92
2018-04-15T21:54:18.754Z,13.90
2018-04-15T21:57:22.025Z,13.81
2018-04-15T22:00:26.087Z,13.85
2018-04-15T22:03:29.449Z,13.70
2018-04-15T22:06:32.943Z,13.65
2018-04-15T22:09:36.266Z,13.72
2018-04-15T22:12:39.523Z,13.57
2018-04-15T22:15:42.821Z,13.74
2018-04-15T22:18:46.090Z,13.70
2018-04-15T22:21:49.366Z,13.66
2018-04-15T22:24:52.651Z,13.71
2018-04-15T22:27:55.918Z,13.74
2018-04-15T22:30:59.178Z,13.72
2018-04-15T22:34:02.440Z,13.69
2018-04-15T22:37:05.747Z,13.70
2018-04-15T22:40:09.023Z,13.76
2018-04-15T22:43:13.055Z,13.70
2018-04-15T22:46:17.077Z,13.69
2018-04-15T22:49:23.287Z,13.73
2018-04-15T22:52:26.554Z,13.70
2018-04-15T22:55:29.843Z,13.70
2018-04-15T22:58:38.761Z,13.61
2018-04-15T23:01:42.026Z,13.55
2018-04-15T23:04:45.295Z,13.39
2018-04-15T23:07:48.577Z,13.23
2018-04-15T23:10:51.843Z,13.22
2018-04-15T23:13:55.899Z,13.26
2018-04-15T23:16:59.160Z,13.23
2018-04-15T23:20:02.422Z,13.25
2018-04-15T23:23:05.700Z,13.22
2018-04-15T23:26:08.992Z,13.20
2018-04-15T23:29:12.263Z,13.14
2018-04-15T23:32:15.555Z,13.22
2018-04-15T23:35:18.845Z,13.21
2018-04-15T23:38:22.124Z,13.10
2018-04-15T23:41:25.420Z,13.02
2018-04-15T23:44:28.710Z,12.98
2018-04-15T23:47:31.989Z,12.99
2018-04-15T23:50:35.263Z,12.97
2018-04-15T23:53:38.534Z,12.91
2018-04-15T23:56:41.824Z,12.97
2018-04-15T23:59:45.853Z,12.95
